Thunder radar more information blitzortung!


Radar de pluja more information rain snow radar


Visita la nostra xarxa de llocs de meteo:

Template documentation
and downloads

And another site



No particular awareness of the weather is required.    There are no Weather-warnings

Pagina Historial Weather Underground text

Diari Resum May 14, 2017 Unitats:  Mètric    Imperial   Tant
« Previous Dia
SegĂźent Dia »
Diari Setmana Mensual Anual Personalitzada
  Maxima: Minima: Media:
Temperatura: -17.8 °C -10.1 °C -6.4 °C
Punt de rosada: -17.8 °C -13.6 °C -12.1 °C
Humitat: Humidity % 42 % 53 %
Wind Speed: 0 km/h 0 km/h 11.9 km/h
RĂ fegues de vent: 0 km/h - -
Vent:- - ESE
Pression baro: 0 hPa 34496.6 hPa -
Precipitacions: 0 mm    
Historical Graphs
 
 
Dades de taula per May 14, 2017
Temps Temperatura Punt de rosada Pression baro Vent Wind Speed RĂ fegues de vent Humitat Rainfall Rate (Hourly)
-17.8 °C -17.8 °C 0 hPa Calm     Humidity % 0 mm
00:02 -8.2 °C -13.6 °C 34496.6 hPa West 6 km/h 6 km/h 53 % 0 mm
00:07 -8.2 °C -13.6 °C 34496.6 hPa WNW 6 km/h 6 km/h 53 % 0 mm
03:15 -8.2 °C -11.9 °C 34601.5 hPa SE 2.6 km/h 5.1 km/h 65 % 0 mm
03:25 -8.4 °C -12.2 °C 34601.5 hPa NE 7.7 km/h 7.7 km/h 64 % 0 mm
03:35 -8.3 °C -12.2 °C 34601.5 hPa NE 2.6 km/h 7.7 km/h 64 % 0 mm
03:45 -8.3 °C -12.2 °C 34601.5 hPa NNE 5.1 km/h 7.7 km/h 63 % 0 mm
03:55 -7.7 °C -11.6 °C 34601.5 hPa Calm   7.7 km/h 63 % 0 mm
04:05 -7.6 °C -11.8 °C 34601.5 hPa NE 5.1 km/h 5.1 km/h 61 % 0 mm
04:15 -7.6 °C -11.8 °C 34601.5 hPa NE 5.1 km/h 7.7 km/h 61 % 0 mm
04:25 -7 °C -11.6 °C 34635.4 hPa NNE 5.1 km/h 7.7 km/h 59 % 0 mm
04:35 -7.3 °C -11.7 °C 34635.4 hPa NNE 7.7 km/h 10.3 km/h 60 % 0 mm
04:45 -6.7 °C -11.3 °C 34635.4 hPa NE 2.6 km/h 10.3 km/h 59 % 0 mm
04:55 -6.3 °C -11.1 °C 34635.4 hPa NE 2.6 km/h 7.7 km/h 58 % 0 mm
05:05 -6.2 °C -11.2 °C 34635.4 hPa NE 5.1 km/h 12.9 km/h 56 % 0 mm
05:15 -6.3 °C -11.4 °C 34635.4 hPa NE 2.6 km/h 7.7 km/h 56 % 0 mm
05:25 -6.2 °C -11.4 °C 34635.4 hPa NE 7.7 km/h 10.3 km/h 55 % 0 mm
05:35 -5.6 °C -11 °C 34669.3 hPa East 2.6 km/h 5.1 km/h 54 % 0 mm
05:45 -5.6 °C -11.2 °C 34669.3 hPa ESE 2.6 km/h 10.3 km/h 53 % 0 mm
05:55 -5.5 °C -11.2 °C 34669.3 hPa East 7.7 km/h 10.3 km/h 52 % 0 mm
06:05 -5.6 °C -11.3 °C 34635.4 hPa ESE 5.1 km/h 10.3 km/h 52 % 0 mm
06:15 -5.7 °C -11.4 °C 34635.4 hPa East 7.7 km/h 10.3 km/h 52 % 0 mm
06:25 -5.4 °C -11.2 °C 34669.3 hPa ENE 7.7 km/h 10.3 km/h 52 % 0 mm
06:35 -5.1 °C -11.1 °C 34669.3 hPa ESE 7.7 km/h 10.3 km/h 51 % 0 mm
06:45 -5.1 °C -11.2 °C 34669.3 hPa ESE 2.6 km/h 15.6 km/h 50 % 0 mm
06:55 -4.9 °C -11.4 °C 34669.3 hPa East 12.9 km/h 12.9 km/h 48 % 0 mm
07:05 -4.7 °C -11.2 °C 34669.3 hPa SE 7.7 km/h 12.9 km/h 48 % 0 mm
07:15 -4.7 °C -11.2 °C 34669.3 hPa SE 5.1 km/h 12.9 km/h 48 % 0 mm
07:25 -4.9 °C -11.5 °C 34635.4 hPa ESE 15.6 km/h 20.8 km/h 47 % 0 mm
12:33 -4.7 °C -11.3 °C 34669.3 hPa West 15 km/h 15 km/h 47 % 0 mm
12:38 -4.6 °C -11.4 °C 34669.3 hPa ENE 15 km/h 15 km/h 46 % 0 mm
12:43 -4.6 °C -11.4 °C 34669.3 hPa NE 23.8 km/h 23.8 km/h 46 % 0 mm
12:48 -4.8 °C -11.8 °C 34669.3 hPa SSE 17.9 km/h 17.9 km/h 45 % 0 mm
12:53 -4.6 °C -11.4 °C 34669.3 hPa SSE 15.6 km/h 15.6 km/h 46 % 0 mm
12:58 -4.6 °C -11.6 °C 34669.3 hPa ESE 23.8 km/h 23.8 km/h 45 % 0 mm
13:03 -4.5 °C -11.6 °C 34669.3 hPa SE 11.9 km/h 11.9 km/h 45 % 0 mm
13:08 -4.3 °C -11.6 °C 34669.3 hPa South 15 km/h 15 km/h 44 % 0 mm
13:13 -4.1 °C -11.3 °C 34669.3 hPa SE 20.9 km/h 20.9 km/h 44 % 0 mm
13:18 -4.6 °C -11.6 °C 34669.3 hPa ESE 19.2 km/h 19.2 km/h 45 % 0 mm
13:23 -4.8 °C -11.8 °C 34669.3 hPa South 17.9 km/h 17.9 km/h 45 % 0 mm
13:28 -4.7 °C -11.7 °C 34669.3 hPa ESE 17.9 km/h 17.9 km/h 45 % 0 mm
13:33 -4.6 °C -11.6 °C 34669.3 hPa ESE 33.2 km/h 33.2 km/h 45 % 0 mm
13:38 -4.7 °C -11.7 °C 34669.3 hPa ESE 29.8 km/h 29.8 km/h 45 % 0 mm
13:43 -4.8 °C -11.8 °C 34669.3 hPa SE 35.7 km/h 35.7 km/h 45 % 0 mm
13:48 -4.8 °C -11.8 °C 34669.3 hPa ESE 29 km/h 29 km/h 45 % 0 mm
13:53 -4.6 °C -11.6 °C 34669.3 hPa ESE 20.9 km/h 20.9 km/h 45 % 0 mm
13:58 -4.5 °C -11.6 °C 34669.3 hPa ESE 22.5 km/h 22.5 km/h 45 % 0 mm
14:03 -4.7 °C -11.5 °C 34669.3 hPa NNE 16.6 km/h 16.6 km/h 46 % 0 mm
14:08 -5 °C -12 °C 34669.3 hPa ESE 23.8 km/h 23.8 km/h 45 % 0 mm
14:13 -5 °C -11.8 °C 34669.3 hPa ESE 23.8 km/h 23.8 km/h 46 % 0 mm
14:18 -4.8 °C -11.7 °C 34669.3 hPa ENE 20.9 km/h 20.9 km/h 46 % 0 mm
14:23 -4.8 °C -11.7 °C 34669.3 hPa SSW 23.8 km/h 23.8 km/h 46 % 0 mm
14:28 -4.9 °C -11.7 °C 34669.3 hPa ESE 20.9 km/h 20.9 km/h 46 % 0 mm
14:33 -4.9 °C -11.7 °C 34669.3 hPa SE 25.9 km/h 25.9 km/h 46 % 0 mm
14:38 -4.9 °C -11.7 °C 34669.3 hPa ESE 15 km/h 15 km/h 46 % 0 mm
14:43 -4.9 °C -11.8 °C 34669.3 hPa ESE 20.9 km/h 20.9 km/h 46 % 0 mm
14:48 -4.9 °C -11.8 °C 34669.3 hPa SE 15.6 km/h 15.6 km/h 46 % 0 mm
14:53 -5.1 °C -11.8 °C 34669.3 hPa NE 15 km/h 15 km/h 46 % 0 mm
14:58 -5.2 °C -11.9 °C 34669.3 hPa ESE 23.8 km/h 23.8 km/h 46 % 0 mm
15:03 -5.2 °C -11.8 °C 34669.3 hPa NE 20.9 km/h 20.9 km/h 47 % 0 mm
15:08 -5.1 °C -11.8 °C 34669.3 hPa SE 20.9 km/h 20.9 km/h 46 % 0 mm
15:13 -5.1 °C -11.9 °C 34669.3 hPa SE 20.9 km/h 20.9 km/h 46 % 0 mm
15:18 -5 °C -12 °C 34669.3 hPa ENE 20.9 km/h 20.9 km/h 45 % 0 mm
15:23 -4.9 °C -11.9 °C 34669.3 hPa ENE 26.9 km/h 26.9 km/h 45 % 0 mm
15:28 -4.8 °C -11.6 °C 34635.4 hPa ENE 23.8 km/h 23.8 km/h 46 % 0 mm
15:33 -4.7 °C -11.6 °C 34635.4 hPa ENE 17.9 km/h 17.9 km/h 46 % 0 mm
15:38 -4.8 °C -11.8 °C 34635.4 hPa ESE 23.8 km/h 23.8 km/h 45 % 0 mm
15:43 -4.9 °C -12.1 °C 34635.4 hPa ESE 26.9 km/h 26.9 km/h 44 % 0 mm
15:48 -4.7 °C -11.9 °C 34635.4 hPa East 18.3 km/h 18.3 km/h 44 % 0 mm
15:53 -4.6 °C -11.8 °C 34635.4 hPa East 20.3 km/h 20.3 km/h 44 % 0 mm
15:58 -4.6 °C -11.8 °C 34635.4 hPa ESE 20.9 km/h 20.9 km/h 44 % 0 mm
16:03 -4.7 °C -11.9 °C 34635.4 hPa NE 20.9 km/h 20.9 km/h 44 % 0 mm
16:08 -4.6 °C -12 °C 34635.4 hPa ESE 20.9 km/h 20.9 km/h 43 % 0 mm
16:13 -4.6 °C -12 °C 34635.4 hPa SSE 16.1 km/h 16.1 km/h 43 % 0 mm
16:18 -4.4 °C -11.6 °C 34635.4 hPa ESE 16.1 km/h 16.1 km/h 44 % 0 mm
16:23 -4.4 °C -11.8 °C 34635.4 hPa East 23.8 km/h 23.8 km/h 43 % 0 mm
16:28 -4.4 °C -11.8 °C 34635.4 hPa East 22.5 km/h 22.5 km/h 43 % 0 mm
16:33 -4.5 °C -11.9 °C 34635.4 hPa ENE 26.9 km/h 26.9 km/h 43 % 0 mm
16:38 -4.4 °C -11.7 °C 34635.4 hPa ENE 17.9 km/h 17.9 km/h 44 % 0 mm
16:43 -4.6 °C -12 °C 34635.4 hPa ENE 29.8 km/h 29.8 km/h 43 % 0 mm
16:48 -4.4 °C -11.8 °C 34635.4 hPa South 15 km/h 15 km/h 43 % 0 mm
16:53 -4.4 °C -11.8 °C 34635.4 hPa ENE 23.8 km/h 23.8 km/h 43 % 0 mm
16:58 -4.4 °C -11.8 °C 34601.5 hPa ESE 26.4 km/h 26.4 km/h 43 % 0 mm
17:03 -4.5 °C -11.9 °C 34601.5 hPa ESE 38.8 km/h 38.8 km/h 43 % 0 mm
17:08 -4.5 °C -11.9 °C 34601.5 hPa ESE 26.9 km/h 26.9 km/h 43 % 0 mm
17:13 -4.6 °C -12.2 °C 34601.5 hPa ENE 29.8 km/h 29.8 km/h 42 % 0 mm
17:18 -4.6 °C -12 °C 34601.5 hPa ESE 17.9 km/h 17.9 km/h 43 % 0 mm
17:23 -4.6 °C -12.2 °C 34601.5 hPa ENE 23.8 km/h 23.8 km/h 42 % 0 mm
17:28 -4.6 °C -12 °C 34601.5 hPa ESE 23.8 km/h 23.8 km/h 43 % 0 mm
17:33 -4.6 °C -12 °C 34601.5 hPa ESE 17.9 km/h 17.9 km/h 43 % 0 mm
17:38 -4.6 °C -12.2 °C 34601.5 hPa East 20.9 km/h 20.9 km/h 42 % 0 mm
17:43 -4.7 °C -12.3 °C 34635.4 hPa ESE 29.8 km/h 29.8 km/h 42 % 0 mm
17:48 -4.8 °C -12.2 °C 34635.4 hPa ENE 23.8 km/h 23.8 km/h 43 % 0 mm
17:53 -4.7 °C -12.1 °C 34635.4 hPa ESE 23.8 km/h 23.8 km/h 43 % 0 mm
17:58 -4.8 °C -12.2 °C 34635.4 hPa ESE 25.4 km/h 25.4 km/h 43 % 0 mm
18:03 -4.9 °C -12.3 °C 34635.4 hPa ESE 20.9 km/h 20.9 km/h 43 % 0 mm
18:08 -5 °C -12.4 °C 34635.4 hPa ESE 26.9 km/h 26.9 km/h 43 % 0 mm
18:13 -5.1 °C -12.3 °C 34601.5 hPa SSE 32.8 km/h 32.8 km/h 44 % 0 mm
18:18 -5.2 °C -12.1 °C 34601.5 hPa East 26.9 km/h 26.9 km/h 45 % 0 mm
18:23 -5.2 °C -12.3 °C 34601.5 hPa NE 16.1 km/h 16.1 km/h 44 % 0 mm
18:28 -5.2 °C -12.1 °C 34635.4 hPa ESE 20.9 km/h 20.9 km/h 45 % 0 mm
18:33 -5.4 °C -12.3 °C 34635.4 hPa SE 26.9 km/h 26.9 km/h 45 % 0 mm
18:38 -5.4 °C -12.2 °C 34635.4 hPa ESE 20.9 km/h 20.9 km/h 46 % 0 mm
18:43 -5.4 °C -12.3 °C 34601.5 hPa ENE 17.9 km/h 17.9 km/h 45 % 0 mm
18:48 -5.4 °C -12.2 °C 34601.5 hPa ESE 23.8 km/h 23.8 km/h 46 % 0 mm
18:53 -5.4 °C -12.2 °C 34601.5 hPa ESE 23.8 km/h 23.8 km/h 46 % 0 mm
18:58 -5.5 °C -12.1 °C 34635.4 hPa ESE 23.8 km/h 23.8 km/h 47 % 0 mm
19:03 -5.6 °C -12.1 °C 34635.4 hPa East 15 km/h 15 km/h 47 % 0 mm
19:08 -5.7 °C -12.1 °C 34635.4 hPa East 15 km/h 15 km/h 48 % 0 mm
19:13 -5.7 °C -12.1 °C 34635.4 hPa ENE 11.9 km/h 11.9 km/h 48 % 0 mm
19:15 -8.3 °C -12.2 °C 34740.4 hPa Calm   2.6 km/h 64 % 0 mm
19:18 -5.7 °C -12.1 °C 34635.4 hPa ENE 11.9 km/h 11.9 km/h 48 % 0 mm
19:23 -5.6 °C -12 °C 34635.4 hPa ENE 15 km/h 15 km/h 48 % 0 mm
19:25 -8.4 °C -12.1 °C 34740.4 hPa Calm     65 % 0 mm
19:28 -5.6 °C -12 °C 34635.4 hPa East 9 km/h 9 km/h 48 % 0 mm
19:33 -5.7 °C -12.1 °C 34635.4 hPa East 11.9 km/h 11.9 km/h 48 % 0 mm
19:35 -8.5 °C -12.1 °C 34740.4 hPa Calm     66 % 0 mm
19:38 -5.7 °C -12.1 °C 34635.4 hPa ESE 15.6 km/h 15.6 km/h 48 % 0 mm
19:43 -5.7 °C -12.1 °C 34635.4 hPa ESE 9 km/h 9.8 km/h 48 % 0 mm
19:45 -8.7 °C -12.2 °C 34740.4 hPa Calm     66 % 0 mm
19:48 -5.7 °C -12.1 °C 34635.4 hPa ENE 9 km/h 9 km/h 48 % 0 mm
19:49 -5.7 °C -12.1 °C 34635.4 hPa ENE 9 km/h 9 km/h 48 % 0 mm
19:54 -5.8 °C -12.2 °C 34635.4 hPa ESE 11.9 km/h 11.9 km/h 48 % 0 mm
19:55 -8.7 °C -12.1 °C 34740.4 hPa Calm     67 % 0 mm
19:59 -5.8 °C -12 °C 34635.4 hPa East 11.9 km/h 11.9 km/h 49 % 0 mm
20:04 -5.8 °C -12.2 °C 34635.4 hPa ESE 11.9 km/h 11.9 km/h 48 % 0 mm
20:05 -8.8 °C -12.2 °C 34740.4 hPa NW 2.6 km/h 5.1 km/h 67 % 0 mm
20:09 -5.8 °C -12.2 °C 34635.4 hPa East 9 km/h 9.3 km/h 48 % 0 mm
20:14 -5.9 °C -12.1 °C 34635.4 hPa NE 9 km/h 9 km/h 49 % 0 mm
20:15 -8.8 °C -12.1 °C 34703.1 hPa Calm   5.1 km/h 68 % 0 mm
20:19 -6 °C -12.2 °C 34635.4 hPa ENE 11.9 km/h 11.9 km/h 49 % 0 mm
20:24 -6.1 °C -12.3 °C 34635.4 hPa ESE 11.9 km/h 11.9 km/h 49 % 0 mm
20:25 -8.8 °C -12.1 °C 34740.4 hPa Calm     68 % 0 mm
20:29 -6.2 °C -12.2 °C 34669.3 hPa SE 9 km/h 10.3 km/h 50 % 0 mm
20:34 -6.2 °C -12.2 °C 34669.3 hPa ESE 11.9 km/h 11.9 km/h 50 % 0 mm
20:35 -8.9 °C -12.2 °C 34740.4 hPa WNW 2.6 km/h 5.1 km/h 68 % 0 mm
20:39 -6.3 °C -12.3 °C 34669.3 hPa ESE 11.9 km/h 11.9 km/h 50 % 0 mm
20:44 -6.3 °C -12.2 °C 34635.4 hPa East 9.8 km/h 9.8 km/h 51 % 0 mm
20:45 -8.9 °C -12.2 °C 34774.2 hPa Calm   2.6 km/h 68 % 0 mm
20:49 -6.4 °C -12.2 °C 34635.4 hPa ENE 6 km/h 6 km/h 51 % 0 mm
20:54 -6.4 °C -12.3 °C 34635.4 hPa NE 6 km/h 6 km/h 51 % 0 mm
20:55 -8.9 °C -12.2 °C 34740.4 hPa Calm   5.1 km/h 68 % 0 mm
20:59 -6.5 °C -12.2 °C 34669.3 hPa ESE 11.9 km/h 11.9 km/h 52 % 0 mm
21:04 -6.6 °C -12.2 °C 34669.3 hPa ENE 8 km/h 8 km/h 52 % 0 mm
21:05 -9.2 °C -12.5 °C 34740.4 hPa West 2.6 km/h 5.1 km/h 68 % 0 mm
21:09 -6.6 °C -12.3 °C 34669.3 hPa NNE 6 km/h 6 km/h 52 % 0 mm
21:14 -6.7 °C -12.3 °C 34635.4 hPa NE 6.3 km/h 6.3 km/h 52 % 0 mm
21:15 -9.5 °C -12.7 °C 34740.4 hPa WSW 5.1 km/h 5.1 km/h 68 % 0 mm
21:19 -6.7 °C -12.2 °C 34635.4 hPa NE 7.6 km/h 7.6 km/h 53 % 0 mm
21:24 -6.8 °C -12.3 °C 34635.4 hPa ENE 11.9 km/h 11.9 km/h 53 % 0 mm
21:25 -9.5 °C -12.7 °C 34740.4 hPa SW 7.7 km/h 7.7 km/h 68 % 0 mm
21:29 -6.9 °C -12.3 °C 34669.3 hPa NNE 6 km/h 6 km/h 53 % 0 mm
21:34 -6.9 °C -12.4 °C 34669.3 hPa NE 3.1 km/h   53 % 0 mm
21:35 -9.7 °C -12.8 °C 34740.4 hPa SW 5.1 km/h 7.7 km/h 69 % 0 mm
21:39 -7 °C -12.3 °C 34669.3 hPa NNE 6 km/h 6 km/h 54 % 0 mm
21:44 -7 °C -12.3 °C 34703.1 hPa NNW 3.1 km/h   54 % 0 mm
21:45 -9.7 °C -12.6 °C 34740.4 hPa Calm   7.7 km/h 71 % 0 mm
21:49 -7.1 °C -12.2 °C 34703.1 hPa Calm     55 % 0 mm
21:54 -7.2 °C -12.3 °C 34703.1 hPa NNE 6 km/h 6 km/h 55 % 0 mm
21:55 -9.7 °C -12.5 °C 34740.4 hPa Calm     72 % 0 mm
21:59 -7.2 °C -12.3 °C 34740.4 hPa NNE 6 km/h 6 km/h 55 % 0 mm
22:04 -7.3 °C -12.1 °C 34740.4 hPa Calm     57 % 0 mm
22:05 -9.6 °C -12.4 °C 34740.4 hPa Calm   2.6 km/h 72 % 0 mm
22:09 -7.3 °C -12.2 °C 34740.4 hPa NNE 6 km/h 6 km/h 57 % 0 mm
22:14 -7.4 °C -12.2 °C 34703.1 hPa North 3.1 km/h   57 % 0 mm
22:15 -9.6 °C -12.4 °C 34740.4 hPa Calm   2.6 km/h 72 % 0 mm
22:19 -7.4 °C -12.1 °C 34703.1 hPa Calm     58 % 0 mm
22:24 -7.5 °C -12.2 °C 34703.1 hPa Calm     58 % 0 mm
22:25 -9.7 °C -12.4 °C 34740.4 hPa Calm     72 % 0 mm
22:29 -7.6 °C -12.1 °C 34740.4 hPa North 7.6 km/h 7.6 km/h 59 % 0 mm
22:34 -7.6 °C -12.1 °C 34740.4 hPa NNE 3.1 km/h 3.1 km/h 59 % 0 mm
22:35 -9.7 °C -12.4 °C 34740.4 hPa Calm     72 % 0 mm
22:39 -7.7 °C -12.1 °C 34740.4 hPa Calm     60 % 0 mm
22:44 -7.7 °C -12.1 °C 34740.4 hPa Calm     60 % 0 mm
22:45 -9.8 °C -12.6 °C 34740.4 hPa Calm   5.1 km/h 72 % 0 mm
22:49 -7.8 °C -12.2 °C 34740.4 hPa NE 6 km/h 6 km/h 60 % 0 mm
22:54 -7.8 °C -12.2 °C 34740.4 hPa Calm     60 % 0 mm
22:55 -10.1 °C -12.8 °C 34740.4 hPa West 2.6 km/h 5.1 km/h 72 % 0 mm
22:59 -7.8 °C -12.1 °C 34740.4 hPa NNE 2.3 km/h   61 % 0 mm
23:04 -7.8 °C -12.1 °C 34740.4 hPa ENE 4.2 km/h 4.2 km/h 61 % 0 mm
23:05 -10.1 °C -12.7 °C 34740.4 hPa Calm   2.6 km/h 73 % 0 mm
23:09 -7.9 °C -12.1 °C 34740.4 hPa Calm     61 % 0 mm
23:14 -7.9 °C -12.1 °C 34740.4 hPa NE 3.1 km/h   62 % 0 mm
23:15 -10.1 °C -12.8 °C 34740.4 hPa SW 5.1 km/h 5.1 km/h 72 % 0 mm
23:19 -8 °C -12.1 °C 34740.4 hPa Calm     62 % 0 mm
23:24 -8 °C -12.1 °C 34740.4 hPa Calm     62 % 0 mm
23:25 -10.1 °C -12.9 °C 34740.4 hPa SW 5.1 km/h 5.1 km/h 72 % 0 mm
23:29 -8.1 °C -12.2 °C 34740.4 hPa Calm     62 % 0 mm
23:34 -8.1 °C -12.2 °C 34740.4 hPa Calm     62 % 0 mm
23:35 -10.1 °C -12.7 °C 34740.4 hPa WSW 5.1 km/h 5.1 km/h 73 % 0 mm
23:39 -8.2 °C -12.1 °C 34740.4 hPa Calm     63 % 0 mm
23:44 -8.2 °C -12.1 °C 34740.4 hPa Calm     63 % 0 mm
23:45 -10 °C -12.7 °C 34740.4 hPa WSW 2.6 km/h 5.1 km/h 73 % 0 mm
23:49 -8.2 °C -12.1 °C 34740.4 hPa Calm     63 % 0 mm
23:54 -8.2 °C -12.1 °C 34740.4 hPa NNE 3.7 km/h 3.7 km/h 63 % 0 mm
23:55 -9.9 °C -12.6 °C 34740.4 hPa WSW 2.6 km/h 5.1 km/h 73 % 0 mm
23:59 -8.2 °C -12.2 °C 34740.4 hPa NNW 3.1 km/h   63 % 0 mm
Meteo Sesrovires
Elogis d' Weather Underground - 2 mb

Guio original per  Jim McMurry - jmcmurry@mwt.net Adaptat per a la plantilla per  Wim van der Kuil - Leuven-Template.eu

Trobareu la nostra informacio del temps tambe a:

Weather Underground

AWEKAS